createdAt,value
2018-11-04T00:01:12.582Z,102260.79
2018-11-04T00:03:41.618Z,102268.80
2018-11-04T00:06:10.830Z,102263.72
2018-11-04T00:08:39.806Z,102254.86
2018-11-04T00:11:09.327Z,102246.19
2018-11-04T00:13:38.357Z,102248.31
2018-11-04T00:16:07.556Z,102250.13
2018-11-04T00:18:36.664Z,102246.51
2018-11-04T00:21:05.982Z,102240.08
2018-11-04T00:23:35.007Z,102232.27
2018-11-04T00:26:04.144Z,102240.41
2018-11-04T00:28:33.193Z,102240.94
2018-11-04T00:31:02.288Z,102238.39
2018-11-04T00:33:31.276Z,102233.22
2018-11-04T00:36:00.290Z,102230.37
2018-11-04T00:38:29.616Z,102228.59
2018-11-04T00:40:58.613Z,102227.11
2018-11-04T00:43:27.650Z,102219.55
2018-11-04T00:45:56.623Z,102229.63
2018-11-04T00:48:25.675Z,102219.39
2018-11-04T00:50:54.646Z,102210.94
2018-11-04T00:53:23.712Z,102208.78
2018-11-04T00:55:55.567Z,102202.50
2018-11-04T00:58:25.795Z,102196.27
2018-11-04T01:00:55.080Z,102200.02
2018-11-04T01:03:24.325Z,102188.24
2018-11-04T01:05:53.549Z,102187.40
2018-11-04T01:08:22.543Z,102183.17
2018-11-04T01:10:51.663Z,102179.77
2018-11-04T01:13:20.896Z,102176.36
2018-11-04T01:15:49.949Z,102169.20
2018-11-04T01:18:19.254Z,102170.98
2018-11-04T01:20:48.258Z,102160.25
2018-11-04T01:23:17.311Z,102160.70
2018-11-04T01:25:46.490Z,102157.49
2018-11-04T01:28:15.454Z,102156.33
2018-11-04T01:30:44.426Z,102152.39
2018-11-04T01:33:13.422Z,102154.16
2018-11-04T01:35:42.609Z,102145.09
2018-11-04T01:38:11.567Z,102149.02
2018-11-04T01:40:40.607Z,102141.43
2018-11-04T01:43:09.581Z,102138.09
2018-11-04T01:45:39.207Z,102135.66
2018-11-04T01:48:08.198Z,102140.69
2018-11-04T01:50:37.190Z,102141.64
2018-11-04T01:53:06.422Z,102135.62
2018-11-04T01:55:35.748Z,102129.25
2018-11-04T01:58:04.726Z,102121.11
2018-11-04T02:00:33.759Z,102121.53
2018-11-04T02:03:02.759Z,102119.31
2018-11-04T02:05:32.051Z,102110.02
2018-11-04T02:08:01.019Z,102109.34
2018-11-04T02:10:30.248Z,102109.93
2018-11-04T02:12:59.368Z,102109.17
2018-11-04T02:15:28.322Z,102103.97
2018-11-04T02:17:57.765Z,102097.23
2018-11-04T02:20:27.019Z,102089.48
2018-11-04T02:22:56.226Z,102082.52
2018-11-04T02:25:25.217Z,102081.30
2018-11-04T02:27:54.305Z,102080.55
2018-11-04T02:30:23.413Z,102077.28
2018-11-04T02:32:52.395Z,102075.77
2018-11-04T02:35:21.669Z,102072.03
2018-11-04T02:37:50.654Z,102065.17
2018-11-04T02:40:19.681Z,102062.33
2018-11-04T02:42:48.707Z,102068.95
2018-11-04T02:45:18.394Z,102060.59
2018-11-04T02:47:47.694Z,102065.50
2018-11-04T02:50:17.025Z,102065.17
2018-11-04T02:52:45.901Z,102060.41
2018-11-04T02:55:15.201Z,102062.14
2018-11-04T02:57:44.169Z,102060.95
2018-11-04T03:00:14.583Z,102058.88
2018-11-04T03:02:43.768Z,102060.86
2018-11-04T03:05:12.806Z,102057.89
2018-11-04T03:07:42.580Z,102055.12
2018-11-04T03:10:12.986Z,102051.36
2018-11-04T03:12:42.113Z,102039.21
2018-11-04T03:15:11.350Z,102042.77
2018-11-04T03:17:40.314Z,102039.67
2018-11-04T03:20:09.523Z,102032.17
2018-11-04T03:22:38.741Z,102030.05
2018-11-04T03:25:08.216Z,102019.30
2018-11-04T03:27:37.195Z,102017.80
2018-11-04T03:30:07.847Z,102021.98
2018-11-04T03:32:36.831Z,102014.36
2018-11-04T03:35:05.941Z,102012.78
2018-11-04T03:37:35.132Z,102015.54
2018-11-04T03:40:04.321Z,102009.58
2018-11-04T03:42:33.359Z,102008.14
2018-11-04T03:45:02.344Z,102010.90
2018-11-04T03:47:31.424Z,102006.73
2018-11-04T03:50:00.698Z,102004.03
2018-11-04T03:52:29.646Z,102002.66
2018-11-04T03:54:58.622Z,102002.16
2018-11-04T03:57:27.688Z,101996.95
2018-11-04T03:59:56.730Z,101990.35
2018-11-04T04:02:25.704Z,101993.92
2018-11-04T04:04:54.759Z,101985.07
2018-11-04T04:07:23.807Z,101981.78
2018-11-04T04:09:52.958Z,101979.37
2018-11-04T04:12:21.978Z,101973.86
2018-11-04T04:14:51.071Z,101968.38
2018-11-04T04:17:20.250Z,101971.31
2018-11-04T04:19:49.242Z,101970.84
2018-11-04T04:22:18.211Z,101969.85
2018-11-04T04:24:47.177Z,101964.73
2018-11-04T04:27:16.198Z,101953.95
2018-11-04T04:29:45.173Z,101956.51
2018-11-04T04:32:14.217Z,101950.21
2018-11-04T04:34:43.212Z,101946.30
2018-11-04T04:37:12.436Z,101945.96
2018-11-04T04:39:41.406Z,101945.20
2018-11-04T04:42:10.528Z,101949.34
2018-11-04T04:44:39.498Z,101941.05
2018-11-04T04:47:08.503Z,101946.91
2018-11-04T04:49:37.503Z,101947.66
2018-11-04T04:52:06.491Z,101937.58
2018-11-04T04:54:35.470Z,101943.63
2018-11-04T04:57:04.463Z,101935.73
2018-11-04T04:59:33.449Z,101935.98
2018-11-04T05:02:02.415Z,101927.02
2018-11-04T05:04:31.613Z,101923.76
2018-11-04T05:07:00.581Z,101924.06
2018-11-04T05:09:29.778Z,101919.91
2018-11-04T05:11:58.743Z,101925.19
2018-11-04T05:14:27.709Z,101926.48
2018-11-04T05:16:56.930Z,101917.54
2018-11-04T05:19:25.907Z,101920.36
2018-11-04T05:21:54.882Z,101907.55
2018-11-04T05:24:23.900Z,101908.27
2018-11-04T05:26:52.918Z,101904.34
2018-11-04T05:29:21.881Z,101904.53
2018-11-04T05:31:51.185Z,101913.44
2018-11-04T05:34:20.448Z,101909.36
2018-11-04T05:36:49.486Z,101910.16
2018-11-04T05:39:18.450Z,101905.56
2018-11-04T05:41:47.444Z,101909.80
2018-11-04T05:44:16.448Z,101905.50
2018-11-04T05:46:45.436Z,101912.95
2018-11-04T05:49:14.759Z,101908.69
2018-11-04T05:51:44.058Z,101908.65
2018-11-04T05:54:13.359Z,101910.66
2018-11-04T05:56:42.630Z,101914.15
2018-11-04T05:59:11.604Z,101913.31
2018-11-04T06:01:40.578Z,101909.93
2018-11-04T06:04:09.563Z,101920.66
2018-11-04T06:06:38.586Z,101917.00
2018-11-04T06:09:09.055Z,101916.38
2018-11-04T06:11:38.506Z,101928.98
2018-11-04T06:14:08.531Z,101924.50
2018-11-04T06:16:37.519Z,101929.02
2018-11-04T06:19:06.570Z,101936.20
2018-11-04T06:21:35.930Z,101940.92
2018-11-04T06:24:05.035Z,101937.98
2018-11-04T06:26:34.637Z,101943.13
2018-11-04T06:29:03.839Z,101936.46
2018-11-04T06:31:32.825Z,101934.47
2018-11-04T06:34:02.034Z,101934.00
2018-11-04T06:36:31.206Z,101929.07
2018-11-04T06:39:00.308Z,101930.94
2018-11-04T06:41:29.297Z,101929.89
2018-11-04T06:43:58.261Z,101928.69
2018-11-04T06:46:27.220Z,101928.52
2018-11-04T06:48:56.208Z,101929.80
2018-11-04T06:51:25.161Z,101931.54
2018-11-04T06:53:54.442Z,101926.56
2018-11-04T06:56:23.436Z,101928.75
2018-11-04T06:58:52.730Z,101929.56
2018-11-04T07:01:21.733Z,101920.94
2018-11-04T07:04:08.129Z,101918.02
2018-11-04T07:06:37.354Z,101925.68
2018-11-04T07:09:08.476Z,101922.07
2018-11-04T07:11:37.417Z,101917.30
2018-11-04T07:14:06.679Z,101921.97
2018-11-04T07:16:35.994Z,101916.54
2018-11-04T07:19:05.049Z,101913.14
2018-11-04T07:21:34.665Z,101910.92
2018-11-04T07:24:04.525Z,101915.79
2018-11-04T07:26:33.507Z,101914.64
2018-11-04T07:29:02.482Z,101918.05
2018-11-04T07:31:31.657Z,101913.44
2018-11-04T07:34:00.655Z,101909.58
2018-11-04T07:36:29.641Z,101907.20
2018-11-04T07:38:58.619Z,101911.75
2018-11-04T07:41:27.621Z,101913.87
2018-11-04T07:43:56.593Z,101907.34
2018-11-04T07:46:25.877Z,101898.70
2018-11-04T07:48:54.911Z,101911.22
2018-11-04T07:51:24.287Z,101906.00
2018-11-04T07:53:53.322Z,101907.59
2018-11-04T07:56:22.566Z,101909.27
2018-11-04T07:58:51.672Z,101905.50
2018-11-04T08:01:20.665Z,101899.91
2018-11-04T08:03:49.636Z,101899.30
2018-11-04T08:06:18.605Z,101898.92
2018-11-04T08:08:47.640Z,101891.25
2018-11-04T08:11:16.897Z,101890.92
2018-11-04T08:13:45.889Z,101888.27
2018-11-04T08:16:14.951Z,101879.77
2018-11-04T08:18:43.947Z,101874.73
2018-11-04T08:21:12.954Z,101871.31
2018-11-04T08:23:41.927Z,101878.02
2018-11-04T08:26:11.083Z,101875.08
2018-11-04T08:28:40.321Z,101875.61
2018-11-04T08:31:09.266Z,101873.94
2018-11-04T08:33:38.281Z,101872.61
2018-11-04T08:36:07.704Z,101867.48
2018-11-04T08:38:36.681Z,101864.73
2018-11-04T08:41:05.663Z,101861.51
2018-11-04T08:43:34.646Z,101858.41
2018-11-04T08:46:03.856Z,101853.45
2018-11-04T08:48:32.865Z,101856.00
2018-11-04T08:51:01.970Z,101850.45
2018-11-04T08:53:31.199Z,101838.13
2018-11-04T08:56:00.168Z,101838.67
2018-11-04T08:58:29.257Z,101837.59
2018-11-04T09:00:58.307Z,101844.66
2018-11-04T09:03:27.307Z,101845.67
2018-11-04T09:05:56.641Z,101839.11
2018-11-04T09:08:25.749Z,101832.42
2018-11-04T09:10:54.763Z,101836.34
2018-11-04T09:13:24.307Z,101836.95
2018-11-04T09:15:53.340Z,101830.16
2018-11-04T09:18:22.912Z,101833.44
2018-11-04T09:20:51.881Z,101829.03
2018-11-04T09:23:21.212Z,101826.50
2018-11-04T09:25:50.217Z,101831.03
2018-11-04T09:28:19.497Z,101831.66
2018-11-04T09:30:48.487Z,101823.26
2018-11-04T09:33:17.683Z,101827.23
2018-11-04T09:35:46.959Z,101827.59
2018-11-04T09:38:15.746Z,101814.59
2018-11-04T09:40:44.759Z,101816.78
2018-11-04T09:43:14.197Z,101815.14
2018-11-04T09:45:43.162Z,101816.20
2018-11-04T09:48:12.578Z,101806.84
2018-11-04T09:50:41.563Z,101806.36
2018-11-04T09:53:10.562Z,101811.47
2018-11-04T09:55:40.479Z,101807.02
2018-11-04T09:58:10.118Z,101806.58
2018-11-04T10:00:39.393Z,101799.19
2018-11-04T10:03:08.452Z,101806.09
2018-11-04T10:05:37.922Z,101801.31
2018-11-04T10:08:07.085Z,101806.80
2018-11-04T10:10:36.401Z,101803.98
2018-11-04T10:13:05.528Z,101795.00
2018-11-04T10:15:35.247Z,101789.45
2018-11-04T10:18:04.237Z,101786.59
2018-11-04T10:20:33.490Z,101791.48
2018-11-04T10:23:02.238Z,101788.20
2018-11-04T10:25:31.229Z,101785.74
2018-11-04T10:28:00.511Z,101786.11
2018-11-04T10:30:30.593Z,101784.20
2018-11-04T10:32:59.518Z,101773.77
2018-11-04T10:35:28.543Z,101765.86
2018-11-04T10:37:57.623Z,101758.05
2018-11-04T10:40:27.313Z,101761.59
2018-11-04T10:42:56.377Z,101748.77
2018-11-04T10:45:25.353Z,101744.73
2018-11-04T10:47:54.576Z,101742.50
2018-11-04T10:50:23.655Z,101733.37
2018-11-04T10:52:52.624Z,101731.89
2018-11-04T10:55:21.625Z,101729.48
2018-11-04T10:57:51.413Z,101718.28
2018-11-04T11:00:25.720Z,101715.95
2018-11-04T11:02:54.788Z,101722.88
2018-11-04T11:05:24.838Z,101729.17
2018-11-04T11:07:53.977Z,101720.84
2018-11-04T11:10:22.964Z,101714.59
2018-11-04T11:12:52.026Z,101717.50
2018-11-04T11:15:21.195Z,101712.92
2018-11-04T11:17:50.217Z,101705.54
2018-11-04T11:20:19.487Z,101707.80
2018-11-04T11:22:48.619Z,101705.77
2018-11-04T11:25:17.559Z,101696.95
2018-11-04T11:27:46.555Z,101694.73
2018-11-04T11:30:15.609Z,101694.69
2018-11-04T11:32:44.590Z,101687.33
2018-11-04T11:35:13.585Z,101685.48
2018-11-04T11:37:42.593Z,101676.55
2018-11-04T11:40:11.541Z,101670.31
2018-11-04T11:42:40.615Z,101670.80
2018-11-04T11:45:10.231Z,101674.42
2018-11-04T11:47:39.348Z,101672.80
2018-11-04T11:50:08.753Z,101667.19
2018-11-04T11:52:38.424Z,101659.30
2018-11-04T11:55:07.589Z,101655.47
2018-11-04T11:57:36.873Z,101651.81
2018-11-04T12:00:08.459Z,101650.59
2018-11-04T12:02:38.662Z,101649.30
2018-11-04T12:05:07.910Z,101647.23
2018-11-04T12:07:36.909Z,101647.33
2018-11-04T12:10:09.377Z,101645.94
2018-11-04T12:12:38.728Z,101647.97
2018-11-04T12:15:10.068Z,101648.75
2018-11-04T12:17:39.119Z,101632.98
2018-11-04T12:20:09.748Z,101625.33
2018-11-04T12:22:38.804Z,101620.66
2018-11-04T12:25:09.592Z,101621.87
2018-11-04T12:27:38.600Z,101613.64
2018-11-04T12:30:10.676Z,101617.05
2018-11-04T12:32:40.197Z,101618.77
2018-11-04T12:35:10.677Z,101610.45
2018-11-04T12:37:39.609Z,101605.28
2018-11-04T12:40:10.882Z,101597.77
2018-11-04T12:42:40.034Z,101595.77
2018-11-04T12:45:10.534Z,101587.35
2018-11-04T12:47:39.575Z,101589.42
2018-11-04T12:50:10.171Z,101591.19
2018-11-04T12:52:39.278Z,101581.94
2018-11-04T12:55:08.808Z,101577.33
2018-11-04T12:57:37.890Z,101580.86
2018-11-04T13:00:11.615Z,101577.50
2018-11-04T13:02:40.797Z,101582.77
2018-11-04T13:05:10.697Z,101574.06
2018-11-04T13:07:39.799Z,101568.58
2018-11-04T13:10:11.393Z,101572.33
2018-11-04T13:12:40.595Z,101570.89
2018-11-04T13:15:11.492Z,101578.96
2018-11-04T13:17:40.794Z,101572.84
2018-11-04T13:20:09.787Z,101571.39
2018-11-04T13:22:39.098Z,101569.22
2018-11-04T13:25:08.587Z,101569.45
2018-11-04T13:27:37.571Z,101556.91
2018-11-04T13:30:09.143Z,101557.38
2018-11-04T13:32:38.350Z,101550.19
2018-11-04T13:35:07.375Z,101550.59
2018-11-04T13:37:36.392Z,101552.34
2018-11-04T13:40:08.142Z,101554.13
2018-11-04T13:42:37.241Z,101549.72
2018-11-04T13:45:07.145Z,101542.48
2018-11-04T13:47:36.402Z,101546.34
2018-11-04T13:50:07.986Z,101547.34
2018-11-04T13:52:37.002Z,101542.03
2018-11-04T13:55:06.768Z,101544.43
2018-11-04T13:57:35.878Z,101541.45
2018-11-04T14:00:06.184Z,101545.47
2018-11-04T14:02:35.168Z,101543.23
2018-11-04T14:05:04.424Z,101544.05
2018-11-04T14:07:33.680Z,101547.50
2018-11-04T14:10:02.682Z,101549.04
2018-11-04T14:12:31.698Z,101547.60
2018-11-04T14:15:00.719Z,101550.20
2018-11-04T14:17:29.769Z,101540.89
2018-11-04T14:19:59.165Z,101547.90
2018-11-04T14:22:28.242Z,101534.02
2018-11-04T14:24:57.558Z,101536.92
2018-11-04T14:27:26.614Z,101531.66
2018-11-04T14:29:55.651Z,101531.96
2018-11-04T14:32:24.665Z,101538.80
2018-11-04T14:34:53.693Z,101530.33
2018-11-04T14:37:22.751Z,101520.91
2018-11-04T14:39:51.782Z,101527.28
2018-11-04T14:42:20.826Z,101520.66
2018-11-04T14:44:49.875Z,101519.75
2018-11-04T14:47:19.428Z,101527.55
2018-11-04T14:49:48.774Z,101517.60
2018-11-04T14:52:17.895Z,101519.19
2018-11-04T14:54:46.973Z,101529.84
2018-11-04T14:57:16.217Z,101523.67
2018-11-04T14:59:45.336Z,101523.41
2018-11-04T15:02:14.504Z,101525.61
2018-11-04T15:04:43.694Z,101514.92
2018-11-04T15:07:12.685Z,101510.59
2018-11-04T15:09:41.743Z,101510.02
2018-11-04T15:12:10.912Z,101508.37
2018-11-04T15:14:40.085Z,101511.27
2018-11-04T15:17:09.065Z,101509.34
2018-11-04T15:19:38.148Z,101506.09
2018-11-04T15:22:07.222Z,101503.70
2018-11-04T15:24:36.354Z,101505.06
2018-11-04T15:27:05.696Z,101507.15
2018-11-04T15:29:35.068Z,101502.23
2018-11-04T15:32:04.064Z,101501.49
2018-11-04T15:34:33.737Z,101506.94
2018-11-04T15:37:02.769Z,101508.22
2018-11-04T15:39:32.081Z,101515.27
2018-11-04T15:42:01.402Z,101507.77
2018-11-04T15:44:30.387Z,101505.55
2018-11-04T15:46:59.517Z,101505.36
2018-11-04T15:49:28.795Z,101502.41
2018-11-04T15:51:58.305Z,101499.45
2018-11-04T15:54:27.689Z,101493.84
2018-11-04T15:57:00.966Z,101492.47
2018-11-04T15:59:30.009Z,101491.77
2018-11-04T16:01:59.078Z,101495.22
2018-11-04T16:04:28.369Z,101497.05
2018-11-04T16:06:57.447Z,101501.21
2018-11-04T16:09:26.486Z,101496.50
2018-11-04T16:11:55.678Z,101500.98
2018-11-04T16:14:24.697Z,101494.63
2018-11-04T16:16:54.669Z,101501.70
2018-11-04T16:19:23.879Z,101484.53
2018-11-04T16:21:52.919Z,101487.11
2018-11-04T16:24:22.612Z,101473.17
2018-11-04T16:26:51.814Z,101475.75
2018-11-04T16:29:21.247Z,101480.32
2018-11-04T16:31:50.637Z,101477.22
2018-11-04T16:34:19.602Z,101481.81
2018-11-04T16:36:48.815Z,101478.89
2018-11-04T16:39:18.783Z,101476.81
2018-11-04T16:41:48.297Z,101483.05
2018-11-04T16:44:19.617Z,101473.12
2018-11-04T16:46:48.660Z,101473.25
2018-11-04T16:49:17.694Z,101472.66
2018-11-04T16:51:46.903Z,101473.56
2018-11-04T16:54:16.151Z,101469.59
2018-11-04T16:56:45.747Z,101466.67
2018-11-04T16:59:14.780Z,101467.54
2018-11-04T17:01:43.870Z,101468.15
2018-11-04T17:04:12.980Z,101473.40
2018-11-04T17:06:41.892Z,101467.84
2018-11-04T17:09:11.382Z,101475.80
2018-11-04T17:11:40.574Z,101471.53
2018-11-04T17:14:09.600Z,101473.43
2018-11-04T17:16:38.977Z,101476.73
2018-11-04T17:19:08.042Z,101479.32
2018-11-04T17:21:37.130Z,101476.84
2018-11-04T17:24:06.249Z,101474.73
2018-11-04T17:26:35.346Z,101472.36
2018-11-04T17:29:04.445Z,101475.31
2018-11-04T17:31:33.470Z,101474.97
2018-11-04T17:34:02.530Z,101473.58
2018-11-04T17:36:31.731Z,101476.02
2018-11-04T17:39:00.710Z,101467.07
2018-11-04T17:41:29.969Z,101468.80
2018-11-04T17:43:59.276Z,101465.50
2018-11-04T17:46:28.341Z,101469.63
2018-11-04T17:48:57.391Z,101465.79
2018-11-04T17:51:26.486Z,101462.48
2018-11-04T17:53:55.500Z,101461.19
2018-11-04T17:56:24.758Z,101451.72
2018-11-04T17:58:54.107Z,101447.55
2018-11-04T18:01:23.117Z,101445.36
2018-11-04T18:03:52.094Z,101446.60
2018-11-04T18:06:21.310Z,101445.30
2018-11-04T18:08:50.963Z,101442.23
2018-11-04T18:11:20.159Z,101445.91
2018-11-04T18:13:49.249Z,101442.88
2018-11-04T18:16:18.586Z,101440.45
2018-11-04T18:18:47.615Z,101435.91
2018-11-04T18:21:16.599Z,101440.10
2018-11-04T18:23:45.593Z,101437.71
2018-11-04T18:26:14.825Z,101436.22
2018-11-04T18:28:43.947Z,101430.50
2018-11-04T18:31:13.023Z,101432.28
2018-11-04T18:33:42.255Z,101433.47
2018-11-04T18:36:11.274Z,101427.36
2018-11-04T18:38:40.287Z,101428.09
2018-11-04T18:41:09.302Z,101432.45
2018-11-04T18:43:38.677Z,101426.25
2018-11-04T18:46:07.782Z,101424.14
2018-11-04T18:48:37.261Z,101421.75
2018-11-04T18:51:06.599Z,101417.75
2018-11-04T18:53:35.777Z,101413.84
2018-11-04T18:56:05.102Z,101418.72
2018-11-04T18:58:34.144Z,101419.28
2018-11-04T19:01:03.201Z,101409.91
2018-11-04T19:03:32.459Z,101411.86
2018-11-04T19:06:02.096Z,101407.81
2018-11-04T19:08:31.128Z,101414.97
2018-11-04T19:11:00.179Z,101414.00
2018-11-04T19:13:29.173Z,101413.28
2018-11-04T19:15:58.209Z,101405.86
2018-11-04T19:18:27.423Z,101404.55
2018-11-04T19:20:56.539Z,101402.74
2018-11-04T19:23:26.163Z,101409.05
2018-11-04T19:25:55.546Z,101412.02
2018-11-04T19:28:24.580Z,101411.80
2018-11-04T19:30:53.628Z,101400.76
2018-11-04T19:33:22.635Z,101403.47
2018-11-04T19:35:52.200Z,101417.33
2018-11-04T19:38:21.212Z,101412.36
2018-11-04T19:40:50.250Z,101401.91
2018-11-04T19:43:19.705Z,101384.36
2018-11-04T19:45:50.437Z,101368.98
2018-11-04T19:48:19.939Z,101377.38
2018-11-04T19:50:50.181Z,101384.22
2018-11-04T19:53:19.134Z,101389.27
2018-11-04T19:55:48.157Z,101384.22
2018-11-04T19:58:17.148Z,101385.83
2018-11-04T20:00:46.147Z,101385.33
2018-11-04T20:03:15.547Z,101391.14
2018-11-04T20:05:44.944Z,101394.30
2018-11-04T20:08:13.978Z,101398.67
2018-11-04T20:10:43.015Z,101395.97
2018-11-04T20:13:17.419Z,101390.94
2018-11-04T20:15:46.417Z,101393.22
2018-11-04T20:18:20.879Z,101389.11
2018-11-04T20:20:49.864Z,101394.54
2018-11-04T20:23:18.976Z,101375.05
2018-11-04T20:25:53.258Z,101382.67
2018-11-04T20:28:22.219Z,101374.78
2018-11-04T20:30:51.213Z,101374.14
2018-11-04T20:33:20.486Z,101375.28
2018-11-04T20:35:49.743Z,101376.52
2018-11-04T20:38:18.747Z,101374.27
2018-11-04T20:40:53.051Z,101366.95
2018-11-04T20:43:22.077Z,101359.06
2018-11-04T20:45:53.424Z,101371.89
2018-11-04T20:48:28.478Z,101382.37
2018-11-04T20:50:58.201Z,101370.81
2018-11-04T20:53:28.182Z,101365.00
2018-11-04T20:56:02.439Z,101361.65
2018-11-04T20:58:32.574Z,101358.24
2018-11-04T21:01:02.063Z,101356.34
2018-11-04T21:03:31.333Z,101360.95
2018-11-04T21:06:00.801Z,101354.22
2018-11-04T21:08:31.170Z,101355.48
2018-11-04T21:11:00.484Z,101354.18
2018-11-04T21:13:30.925Z,101347.44
2018-11-04T21:16:00.295Z,101349.41
2018-11-04T21:18:29.983Z,101338.48
2018-11-04T21:20:59.683Z,101331.44
2018-11-04T21:23:29.130Z,101326.33
2018-11-04T21:25:58.923Z,101330.44
2018-11-04T21:28:29.731Z,101334.08
2018-11-04T21:30:59.093Z,101324.25
2018-11-04T21:33:28.198Z,101327.53
2018-11-04T21:36:00.381Z,101330.92
2018-11-04T21:38:30.711Z,101333.67
2018-11-04T21:40:59.843Z,101337.59
2018-11-04T21:43:29.020Z,101327.84
2018-11-04T21:45:57.843Z,101321.86
2018-11-04T21:48:27.138Z,101312.23
2018-11-04T21:50:56.505Z,101317.63
2018-11-04T21:53:25.916Z,101323.07
2018-11-04T21:55:55.311Z,101323.07
2018-11-04T21:58:24.222Z,101313.14
2018-11-04T22:00:53.213Z,101304.58
2018-11-04T22:03:22.470Z,101301.98
2018-11-04T22:05:51.521Z,101302.27
2018-11-04T22:08:20.750Z,101296.53
2018-11-04T22:10:49.730Z,101297.36
2018-11-04T22:13:18.703Z,101306.88
2018-11-04T22:15:47.940Z,101302.42
2018-11-04T22:18:16.907Z,101296.47
2018-11-04T22:20:46.106Z,101296.09
2018-11-04T22:23:15.133Z,101303.45
2018-11-04T22:25:44.108Z,101306.87
2018-11-04T22:28:13.399Z,101300.05
2018-11-04T22:30:45.094Z,101289.96
2018-11-04T22:33:14.910Z,101281.55
2018-11-04T22:35:44.891Z,101291.19
2018-11-04T22:38:13.934Z,101285.00
2018-11-04T22:40:42.949Z,101280.95
2018-11-04T22:43:12.227Z,101283.00
2018-11-04T22:45:41.205Z,101282.73
2018-11-04T22:48:10.210Z,101289.52
2018-11-04T22:50:39.189Z,101289.77
2018-11-04T22:53:08.406Z,101299.42
2018-11-04T22:55:37.658Z,101278.17
2018-11-04T22:58:09.104Z,101282.48
2018-11-04T23:00:41.404Z,101277.24
2018-11-04T23:03:10.837Z,101279.20
2018-11-04T23:05:39.826Z,101283.42
2018-11-04T23:08:09.373Z,101285.96
2018-11-04T23:10:38.531Z,101269.44
2018-11-04T23:13:07.975Z,101279.52
2018-11-04T23:15:36.953Z,101278.37
2018-11-04T23:18:05.966Z,101283.88
2018-11-04T23:20:36.342Z,101277.73
2018-11-04T23:23:05.585Z,101272.41
2018-11-04T23:25:34.816Z,101258.42
2018-11-04T23:28:03.779Z,101253.81
2018-11-04T23:30:32.763Z,101276.11
2018-11-04T23:33:02.087Z,101266.61
2018-11-04T23:35:31.089Z,101253.60
2018-11-04T23:38:00.127Z,101246.02
2018-11-04T23:40:29.134Z,101250.25
2018-11-04T23:42:58.417Z,101251.83
2018-11-04T23:45:27.415Z,101248.95
2018-11-04T23:47:56.365Z,101244.70
2018-11-04T23:50:25.357Z,101244.80
2018-11-04T23:52:54.701Z,101249.11
2018-11-04T23:55:23.669Z,101249.67
2018-11-04T23:57:52.621Z,101254.57
